createdAt,value
2023-04-18T00:00:06.132Z,8.7380
2023-04-18T00:01:07.133Z,8.7021
2023-04-18T00:02:08.263Z,8.7689
2023-04-18T00:03:09.528Z,8.7318
2023-04-18T00:04:10.524Z,8.6306
2023-04-18T00:05:11.429Z,8.6518
2023-04-18T00:06:12.355Z,8.6372
2023-04-18T00:07:13.390Z,8.5321
2023-04-18T00:08:14.477Z,8.5396
2023-04-18T00:09:15.486Z,8.6089
2023-04-18T00:10:16.511Z,8.6624
2023-04-18T00:11:17.532Z,8.6810
2023-04-18T00:12:18.570Z,8.7631
2023-04-18T00:13:19.673Z,8.8201
2023-04-18T00:14:20.664Z,8.7246
2023-04-18T00:15:21.695Z,8.6834
2023-04-18T00:16:22.816Z,8.7445
2023-04-18T00:17:23.825Z,8.8231
2023-04-18T00:18:24.851Z,8.8853
2023-04-18T00:19:25.856Z,8.9924
2023-04-18T00:20:26.893Z,9.0795
2023-04-18T00:21:27.963Z,9.0995
2023-04-18T00:22:28.973Z,9.1484
2023-04-18T00:23:30.055Z,9.1210
2023-04-18T00:24:31.030Z,9.1079
2023-04-18T00:25:32.117Z,9.0777
2023-04-18T00:26:33.109Z,9.1739
2023-04-18T00:27:34.176Z,9.1778
2023-04-18T00:28:35.267Z,9.1692
2023-04-18T00:29:36.237Z,9.1154
2023-04-18T00:30:37.354Z,9.0416
2023-04-18T00:31:38.323Z,9.0916
2023-04-18T00:32:39.410Z,9.0428
2023-04-18T00:33:40.461Z,8.9723
2023-04-18T00:34:41.462Z,8.9358
2023-04-18T00:35:42.475Z,8.9989
2023-04-18T00:36:43.546Z,9.1213
2023-04-18T00:37:44.615Z,9.1846
2023-04-18T00:38:45.658Z,8.9829
2023-04-18T00:39:46.621Z,8.8747
2023-04-18T00:40:47.689Z,8.8599
2023-04-18T00:41:48.687Z,8.8141
2023-04-18T00:42:49.754Z,8.7221
2023-04-18T00:43:50.737Z,8.8038
2023-04-18T00:44:51.731Z,8.8440
2023-04-18T00:45:52.754Z,8.9903
2023-04-18T00:46:53.792Z,9.1799
2023-04-18T00:47:54.884Z,9.3057
2023-04-18T00:48:55.893Z,9.2554
2023-04-18T00:49:56.941Z,9.4192
2023-04-18T00:50:57.944Z,9.2559
2023-04-18T00:51:58.996Z,8.9799
2023-04-18T00:53:00.048Z,9.1237
2023-04-18T00:54:01.124Z,9.2111
2023-04-18T00:55:02.115Z,9.1051
2023-04-18T00:56:03.170Z,9.1222
2023-04-18T00:57:04.196Z,9.2683
2023-04-18T00:58:05.241Z,9.1826
2023-04-18T00:59:06.314Z,8.9844
2023-04-18T01:00:07.312Z,9.1229
2023-04-18T01:01:08.393Z,9.1798
2023-04-18T01:02:09.420Z,9.3352
2023-04-18T01:03:10.715Z,9.3930
2023-04-18T01:04:11.699Z,9.2521
2023-04-18T01:05:12.503Z,9.1465
2023-04-18T01:06:13.545Z,9.2622
2023-04-18T01:07:14.577Z,9.4605
2023-04-18T01:08:15.619Z,9.3774
2023-04-18T01:09:16.712Z,9.0945
2023-04-18T01:10:17.709Z,9.0124
2023-04-18T01:11:18.754Z,9.1202
2023-04-18T01:12:19.781Z,9.4211
2023-04-18T01:13:20.826Z,9.3989
2023-04-18T01:14:21.916Z,9.2895
2023-04-18T01:15:22.946Z,9.2470
2023-04-18T01:16:24.069Z,9.3971
2023-04-18T01:17:25.015Z,9.3889
2023-04-18T01:18:26.007Z,9.3017
2023-04-18T01:19:27.115Z,9.4056
2023-04-18T01:20:28.110Z,9.5577
2023-04-18T01:21:29.164Z,9.3049
2023-04-18T01:22:30.187Z,9.0314
2023-04-18T01:23:31.240Z,9.1096
2023-04-18T01:24:32.297Z,9.0605
2023-04-18T01:25:33.303Z,9.0358
2023-04-18T01:26:34.351Z,9.1589
2023-04-18T01:27:35.382Z,9.1934
2023-04-18T01:28:36.428Z,9.2081
2023-04-18T01:29:38.959Z,9.1912
2023-04-18T01:30:38.583Z,9.3552
2023-04-18T01:31:39.596Z,9.4052
2023-04-18T01:32:40.736Z,9.3307
2023-04-18T01:33:41.643Z,9.2820
2023-04-18T01:34:42.707Z,9.4095
2023-04-18T01:35:43.735Z,9.4026
2023-04-18T01:36:44.765Z,9.1064
2023-04-18T01:37:45.809Z,9.1858
2023-04-18T01:38:46.848Z,9.3073
2023-04-18T01:39:47.919Z,9.3465
2023-04-18T01:40:48.917Z,9.3660
2023-04-18T01:41:49.946Z,9.1767
2023-04-18T01:42:51.009Z,9.1789
2023-04-18T01:43:52.034Z,9.3153
2023-04-18T01:44:53.109Z,9.4599
2023-04-18T01:45:54.104Z,9.5427
2023-04-18T01:46:55.204Z,9.5832
2023-04-18T01:47:56.272Z,9.5740
2023-04-18T01:48:57.234Z,9.4714
2023-04-18T01:49:58.286Z,9.3398
2023-04-18T01:50:59.310Z,9.1398
2023-04-18T01:52:00.360Z,9.1447
2023-04-18T01:53:01.394Z,9.1614
2023-04-18T01:54:02.425Z,9.2093
2023-04-18T01:55:03.480Z,9.0257
2023-04-18T01:56:04.497Z,8.9377
2023-04-18T01:57:05.539Z,8.8896
2023-04-18T01:58:06.577Z,8.9390
2023-04-18T01:59:07.620Z,8.9639
2023-04-18T02:00:08.682Z,8.7580
2023-04-18T02:01:09.734Z,8.8361
2023-04-18T02:02:10.822Z,8.9015
2023-04-18T02:03:11.832Z,8.7993
2023-04-18T02:04:13.158Z,9.0347
2023-04-18T02:05:13.879Z,9.3057
2023-04-18T02:06:14.954Z,9.2784
2023-04-18T02:07:15.967Z,8.8979
2023-04-18T02:08:16.945Z,8.8476
2023-04-18T02:09:17.992Z,8.9225
2023-04-18T02:10:19.068Z,8.8365
2023-04-18T02:11:20.111Z,8.8264
2023-04-18T02:12:21.118Z,8.8061
2023-04-18T02:13:22.157Z,8.8605
2023-04-18T02:14:23.181Z,8.9005
2023-04-18T02:15:24.263Z,8.9831
2023-04-18T02:16:25.281Z,8.9297
2023-04-18T02:17:26.293Z,8.9134
2023-04-18T02:18:27.359Z,9.0543
2023-04-18T02:19:28.379Z,8.9485
2023-04-18T02:20:29.436Z,9.0358
2023-04-18T02:21:30.487Z,9.0441
2023-04-18T02:22:31.510Z,9.1433
2023-04-18T02:23:32.565Z,9.2143
2023-04-18T02:24:33.594Z,9.1761
2023-04-18T02:25:34.675Z,9.0692
2023-04-18T02:26:35.706Z,9.0984
2023-04-18T02:27:36.718Z,9.1856
2023-04-18T02:28:37.754Z,9.0686
2023-04-18T02:29:38.816Z,9.0696
2023-04-18T02:30:39.896Z,9.0139
2023-04-18T02:31:40.902Z,8.9934
2023-04-18T02:32:41.922Z,8.7787
2023-04-18T02:33:42.936Z,9.0222
2023-04-18T02:34:43.998Z,9.0884
2023-04-18T02:35:45.045Z,9.0201
2023-04-18T02:36:46.083Z,8.8694
2023-04-18T02:37:47.113Z,9.0593
2023-04-18T02:38:48.160Z,9.1650
2023-04-18T02:39:49.209Z,9.0711
2023-04-18T02:40:50.253Z,9.0576
2023-04-18T02:41:51.321Z,9.2432
2023-04-18T02:42:52.373Z,9.3701
2023-04-18T02:43:53.369Z,9.4995
2023-04-18T02:44:54.398Z,9.2470
2023-04-18T02:45:55.499Z,9.2456
2023-04-18T02:46:56.469Z,9.0959
2023-04-18T02:47:57.580Z,9.1538
2023-04-18T02:48:58.572Z,9.1268
2023-04-18T02:49:59.631Z,9.0638
2023-04-18T02:51:00.695Z,9.0873
2023-04-18T02:52:01.709Z,8.9531
2023-04-18T02:53:02.768Z,9.0937
2023-04-18T02:54:03.828Z,9.3148
2023-04-18T02:55:04.832Z,9.3090
2023-04-18T02:56:05.929Z,9.2208
2023-04-18T02:57:06.932Z,9.3181
2023-04-18T02:58:07.998Z,9.2671
2023-04-18T02:59:08.996Z,9.1395
2023-04-18T03:00:10.041Z,9.2074
2023-04-18T03:01:11.141Z,9.0629
2023-04-18T03:02:12.129Z,8.9962
2023-04-18T03:03:13.229Z,8.9627
2023-04-18T03:04:14.464Z,9.1016
2023-04-18T03:05:15.217Z,8.9949
2023-04-18T03:06:16.379Z,8.8193
2023-04-18T03:07:17.325Z,8.8275
2023-04-18T03:08:18.360Z,8.8689
2023-04-18T03:09:19.411Z,9.0867
2023-04-18T03:10:20.494Z,9.2414
2023-04-18T03:11:21.574Z,9.2788
2023-04-18T03:12:22.589Z,9.0361
2023-04-18T03:13:23.661Z,9.0734
2023-04-18T03:14:24.672Z,9.0565
2023-04-18T03:15:25.718Z,8.8766
2023-04-18T03:16:26.829Z,8.8466
2023-04-18T03:17:27.806Z,8.8541
2023-04-18T03:18:28.867Z,8.9190
2023-04-18T03:19:29.858Z,8.9103
2023-04-18T03:20:30.918Z,8.9216
2023-04-18T03:21:32.001Z,9.0483
2023-04-18T03:22:33.042Z,9.0391
2023-04-18T03:23:34.052Z,8.8437
2023-04-18T03:24:35.121Z,9.0251
2023-04-18T03:25:36.129Z,9.0397
2023-04-18T03:26:37.207Z,8.9783
2023-04-18T03:27:38.267Z,9.1134
2023-04-18T03:28:39.285Z,8.9661
2023-04-18T03:29:40.295Z,9.0554
2023-04-18T03:30:41.336Z,9.1834
2023-04-18T03:31:42.523Z,9.1832
2023-04-18T03:32:43.525Z,9.1041
2023-04-18T03:33:44.475Z,8.8479
2023-04-18T03:34:45.516Z,8.9042
2023-04-18T03:35:46.535Z,9.1237
2023-04-18T03:36:48.156Z,9.0775
2023-04-18T03:37:48.615Z,9.0865
2023-04-18T03:38:49.756Z,9.2518
2023-04-18T03:39:50.717Z,9.3072
2023-04-18T03:40:51.736Z,9.4654
2023-04-18T03:41:52.773Z,9.3497
2023-04-18T03:42:53.851Z,9.3548
2023-04-18T03:43:54.866Z,9.3459
2023-04-18T03:44:55.880Z,9.3097
2023-04-18T03:45:57.131Z,9.4000
2023-04-18T03:46:57.958Z,9.3812
2023-04-18T03:47:59.041Z,9.4109
2023-04-18T03:49:00.036Z,9.4283
2023-04-18T03:50:01.064Z,9.4091
2023-04-18T03:51:02.103Z,9.5355
2023-04-18T03:52:03.155Z,9.4986
2023-04-18T03:53:04.213Z,9.3839
2023-04-18T03:54:05.255Z,9.1178
2023-04-18T03:55:06.257Z,9.1990
2023-04-18T03:56:07.326Z,9.4880
2023-04-18T03:57:08.517Z,9.4630
2023-04-18T03:58:09.457Z,9.1424
2023-04-18T03:59:10.460Z,8.9835
2023-04-18T04:00:11.464Z,9.0488
2023-04-18T04:01:12.498Z,8.9425
2023-04-18T04:02:13.592Z,8.9586
2023-04-18T04:03:14.698Z,8.8550
2023-04-18T04:04:16.216Z,9.0629
2023-04-18T04:05:16.677Z,9.3423
2023-04-18T04:06:17.744Z,9.3865
2023-04-18T04:07:18.741Z,9.1518
2023-04-18T04:08:19.842Z,9.2921
2023-04-18T04:09:20.835Z,9.5063
2023-04-18T04:10:21.877Z,9.5963
2023-04-18T04:11:23.110Z,9.4668
2023-04-18T04:12:23.944Z,9.3293
2023-04-18T04:13:24.998Z,9.2294
2023-04-18T04:14:26.150Z,9.1014
2023-04-18T04:15:27.081Z,9.1287
2023-04-18T04:16:28.294Z,9.3504
2023-04-18T04:17:29.339Z,9.3881
2023-04-18T04:18:30.222Z,9.4401
2023-04-18T04:19:31.247Z,9.3052
2023-04-18T04:20:32.271Z,9.2048
2023-04-18T04:21:33.282Z,9.0938
2023-04-18T04:22:34.360Z,9.0356
2023-04-18T04:23:35.438Z,8.9279
2023-04-18T04:24:36.445Z,8.9631
2023-04-18T04:25:37.448Z,9.0785
2023-04-18T04:26:38.634Z,9.1266
2023-04-18T04:27:39.545Z,9.1486
2023-04-18T04:28:40.624Z,9.1978
2023-04-18T04:29:41.650Z,9.2229
2023-04-18T04:30:42.656Z,9.1632
2023-04-18T04:31:43.813Z,9.1834
2023-04-18T04:32:44.781Z,9.1785
2023-04-18T04:33:45.810Z,9.3188
2023-04-18T04:34:46.828Z,9.2156
2023-04-18T04:35:47.886Z,9.2128
2023-04-18T04:36:48.909Z,9.4134
2023-04-18T04:37:49.938Z,9.4420
2023-04-18T04:38:51.018Z,9.3659
2023-04-18T04:39:52.000Z,9.4473
2023-04-18T04:40:53.052Z,9.2547
2023-04-18T04:41:54.120Z,9.2745
2023-04-18T04:42:55.115Z,9.3379
2023-04-18T04:43:56.179Z,9.6078
2023-04-18T04:44:57.275Z,9.4301
2023-04-18T04:45:58.253Z,9.2881
2023-04-18T04:46:59.438Z,9.0632
2023-04-18T04:48:00.400Z,8.9658
2023-04-18T04:49:01.401Z,9.1787
2023-04-18T04:50:02.388Z,9.3938
2023-04-18T04:51:03.596Z,9.5208
2023-04-18T04:52:04.464Z,9.5170
2023-04-18T04:53:05.502Z,9.0960
2023-04-18T04:54:06.551Z,8.9625
2023-04-18T04:55:07.697Z,8.9419
2023-04-18T04:56:08.629Z,9.2027
2023-04-18T04:57:09.669Z,9.1571
2023-04-18T04:58:10.698Z,9.2803
2023-04-18T04:59:11.738Z,9.3740
2023-04-18T05:00:12.745Z,9.5001
2023-04-18T05:01:13.874Z,9.5766
2023-04-18T05:02:14.959Z,9.5649
2023-04-18T05:03:16.070Z,9.4153
2023-04-18T05:04:17.477Z,9.4402
2023-04-18T05:05:18.073Z,9.6231
2023-04-18T05:06:19.061Z,9.5423
2023-04-18T05:07:20.212Z,9.4724
2023-04-18T05:08:21.134Z,9.6133
2023-04-18T05:09:22.301Z,9.6362
2023-04-18T05:10:23.202Z,9.4710
2023-04-18T05:11:24.254Z,9.4045
2023-04-18T05:12:25.295Z,9.3142
2023-04-18T05:13:26.340Z,9.2710
2023-04-18T05:14:27.419Z,9.2895
2023-04-18T05:15:28.425Z,9.3352
2023-04-18T05:16:29.456Z,9.4285
2023-04-18T05:17:30.510Z,9.5317
2023-04-18T05:18:33.059Z,9.5885
2023-04-18T05:19:32.599Z,9.6204
2023-04-18T05:20:33.579Z,9.6742
2023-04-18T05:21:34.610Z,9.7453
2023-04-18T05:22:35.722Z,9.8934
2023-04-18T05:23:36.681Z,10.1136
2023-04-18T05:24:37.800Z,10.1597
2023-04-18T05:25:38.767Z,10.0328
2023-04-18T05:26:39.794Z,9.9002
2023-04-18T05:27:40.870Z,10.0020
2023-04-18T05:28:41.907Z,10.0777
2023-04-18T05:29:42.970Z,9.8796
2023-04-18T05:30:44.024Z,9.7327
2023-04-18T05:31:44.999Z,9.7220
2023-04-18T05:32:46.190Z,9.6570
2023-04-18T05:33:47.086Z,9.4916
2023-04-18T05:34:48.167Z,9.4036
2023-04-18T05:35:49.181Z,9.4849
2023-04-18T05:36:50.263Z,9.3139
2023-04-18T05:37:51.202Z,9.2184
2023-04-18T05:38:52.276Z,9.5591
2023-04-18T05:39:53.350Z,9.7764
2023-04-18T05:40:54.363Z,9.8499
2023-04-18T05:41:55.391Z,9.7941
2023-04-18T05:42:56.417Z,9.7101
2023-04-18T05:44:04.923Z,9.4995
2023-04-18T05:44:58.535Z,9.5557
2023-04-18T05:45:59.623Z,9.7432
2023-04-18T05:47:00.560Z,9.9912
2023-04-18T05:48:01.833Z,10.1598
2023-04-18T05:49:02.632Z,10.0902
2023-04-18T05:50:03.755Z,10.0304
2023-04-18T05:51:04.712Z,10.1303
2023-04-18T05:52:05.750Z,9.8487
2023-04-18T05:53:06.809Z,9.8032
2023-04-18T05:54:07.873Z,9.8070
2023-04-18T05:55:08.936Z,9.7815
2023-04-18T05:56:09.958Z,9.7509
2023-04-18T05:57:10.971Z,9.6877
2023-04-18T05:58:12.290Z,9.7970
2023-04-18T05:59:13.046Z,9.9862
2023-04-18T06:00:14.187Z,9.8012
2023-04-18T06:01:15.342Z,9.5569
2023-04-18T06:02:16.165Z,9.4834
2023-04-18T06:03:17.543Z,9.4016
2023-04-18T06:04:18.464Z,9.5209
2023-04-18T06:05:19.719Z,9.5552
2023-04-18T06:06:20.254Z,9.7831
2023-04-18T06:07:21.306Z,9.8818
2023-04-18T06:08:22.344Z,10.0960
2023-04-18T06:09:23.412Z,10.0475
2023-04-18T06:10:24.467Z,10.0466
2023-04-18T06:11:25.509Z,10.2650
2023-04-18T06:12:26.524Z,10.3720
2023-04-18T06:13:27.556Z,10.3805
2023-04-18T06:14:28.581Z,10.1239
2023-04-18T06:15:29.665Z,10.0720
2023-04-18T06:16:30.733Z,10.1034
2023-04-18T06:17:31.743Z,10.0552
2023-04-18T06:18:32.749Z,9.7940
2023-04-18T06:19:33.803Z,9.8345
2023-04-18T06:20:34.826Z,10.0698
2023-04-18T06:21:35.851Z,9.7984
2023-04-18T06:22:36.914Z,9.9036
2023-04-18T06:23:37.958Z,10.0465
2023-04-18T06:24:38.966Z,10.1423
2023-04-18T06:25:40.012Z,10.2654
2023-04-18T06:26:41.057Z,10.1937
2023-04-18T06:27:42.092Z,10.2862
2023-04-18T06:28:43.118Z,10.5661
2023-04-18T06:29:44.154Z,10.3658
2023-04-18T06:30:45.151Z,10.1759
2023-04-18T06:31:46.307Z,9.9541
2023-04-18T06:32:47.361Z,9.9881
2023-04-18T06:33:48.258Z,10.1472
2023-04-18T06:34:49.310Z,10.2689
2023-04-18T06:35:50.359Z,10.3024
2023-04-18T06:36:51.410Z,10.4188
2023-04-18T06:37:52.640Z,10.4490
2023-04-18T06:38:53.558Z,10.0934
2023-04-18T06:39:54.650Z,9.8613
2023-04-18T06:40:55.663Z,9.8166
2023-04-18T06:41:56.735Z,9.7357
2023-04-18T06:42:57.710Z,9.6401
2023-04-18T06:44:04.229Z,9.5730
2023-04-18T06:44:59.811Z,9.6595
2023-04-18T06:46:00.852Z,9.6675
2023-04-18T06:47:02.162Z,9.5563
2023-04-18T06:48:02.948Z,9.3157
2023-04-18T06:49:03.977Z,9.4910
2023-04-18T06:50:04.988Z,9.5311
2023-04-18T06:51:06.045Z,9.6931
2023-04-18T06:52:07.140Z,9.6400
2023-04-18T06:53:08.171Z,9.4767
2023-04-18T06:54:09.166Z,9.4596
2023-04-18T06:55:10.166Z,9.6594
2023-04-18T06:56:11.231Z,9.8508
2023-04-18T06:57:12.290Z,9.7598
2023-04-18T06:58:13.289Z,9.7591
2023-04-18T06:59:14.514Z,9.8213
2023-04-18T07:00:15.395Z,9.5999
2023-04-18T07:01:16.412Z,9.3213
2023-04-18T07:02:17.498Z,9.1744
2023-04-18T07:03:18.745Z,9.2795
2023-04-18T07:04:19.870Z,9.1775
2023-04-18T07:05:20.518Z,9.0134
2023-04-18T07:06:21.613Z,8.9916
2023-04-18T07:07:22.636Z,9.0572
2023-04-18T07:08:23.654Z,9.2267
2023-04-18T07:09:24.716Z,9.1862
2023-04-18T07:10:25.735Z,9.2235
2023-04-18T07:11:26.843Z,9.1781
2023-04-18T07:12:27.929Z,9.3390
2023-04-18T07:13:28.912Z,9.4377
2023-04-18T07:14:30.820Z,9.4305
2023-04-18T07:15:31.005Z,9.1282
2023-04-18T07:16:32.067Z,9.1216
2023-04-18T07:17:33.168Z,9.1675
2023-04-18T07:18:38.117Z,9.1769
2023-04-18T07:19:35.145Z,9.2572
2023-04-18T07:20:36.195Z,9.2045
2023-04-18T07:21:37.111Z,9.0234
2023-04-18T07:22:38.276Z,9.0712
2023-04-18T07:23:39.317Z,9.2228
2023-04-18T07:24:40.331Z,9.3929
2023-04-18T07:25:41.352Z,9.2518
2023-04-18T07:26:42.398Z,9.3260
2023-04-18T07:27:43.462Z,9.4115
2023-04-18T07:28:44.531Z,9.4235
2023-04-18T07:29:45.525Z,9.4987
2023-04-18T07:30:46.578Z,9.7841
2023-04-18T07:31:47.556Z,9.9508
2023-04-18T07:32:48.754Z,10.0550
2023-04-18T07:33:49.645Z,9.9754
2023-04-18T07:34:50.678Z,9.7214
2023-04-18T07:35:51.739Z,9.7105
2023-04-18T07:36:52.769Z,9.6961
2023-04-18T07:37:53.820Z,9.6744
2023-04-18T07:38:54.848Z,9.6788
2023-04-18T07:39:56.062Z,9.7940
2023-04-18T07:40:56.885Z,9.7778
2023-04-18T07:41:57.872Z,9.7550
2023-04-18T07:42:59.045Z,9.6425
2023-04-18T07:43:59.975Z,9.7571
2023-04-18T07:45:00.999Z,9.8756
2023-04-18T07:46:02.632Z,10.1746
2023-04-18T07:47:02.994Z,10.1763
2023-04-18T07:48:04.127Z,9.8618
2023-04-18T07:49:05.068Z,9.7221
2023-04-18T07:50:06.109Z,9.7576
2023-04-18T07:51:07.589Z,10.0765
2023-04-18T07:52:08.162Z,10.1481
2023-04-18T07:53:09.235Z,10.1432
2023-04-18T07:54:10.242Z,10.0110
2023-04-18T07:55:11.292Z,9.8993
2023-04-18T07:56:12.316Z,9.8996
2023-04-18T07:57:13.822Z,10.1242
2023-04-18T07:58:14.380Z,10.0800
2023-04-18T07:59:15.732Z,9.9961
2023-04-18T08:00:16.467Z,9.6684
2023-04-18T08:01:17.522Z,9.5586
2023-04-18T08:02:18.560Z,9.5093
2023-04-18T08:03:20.113Z,9.4410
2023-04-18T08:04:20.704Z,9.5917
2023-04-18T08:05:21.673Z,9.8083
2023-04-18T08:06:22.646Z,9.8464
2023-04-18T08:07:23.700Z,9.9466
2023-04-18T08:08:24.799Z,9.8032
2023-04-18T08:09:25.805Z,9.7036
2023-04-18T08:10:26.882Z,9.9484
2023-04-18T08:11:27.895Z,10.0153
2023-04-18T08:12:28.922Z,9.7993
2023-04-18T08:13:30.012Z,9.9956
2023-04-18T08:14:30.947Z,10.3036
2023-04-18T08:15:32.028Z,10.4053
2023-04-18T08:16:33.078Z,10.2770
2023-04-18T08:17:34.137Z,10.3658
2023-04-18T08:18:35.179Z,10.3881
2023-04-18T08:19:36.159Z,10.3853
2023-04-18T08:20:37.278Z,10.2689
2023-04-18T08:21:38.221Z,10.1746
2023-04-18T08:22:49.981Z,10.2451
2023-04-18T08:23:40.342Z,10.3866
2023-04-18T08:24:44.549Z,10.3317
2023-04-18T08:25:42.355Z,10.2294
2023-04-18T08:26:43.436Z,9.9445
2023-04-18T08:27:44.431Z,10.0721
2023-04-18T08:28:46.484Z,10.0206
2023-04-18T08:29:46.566Z,9.9746
2023-04-18T08:30:47.562Z,10.1487
2023-04-18T08:31:48.649Z,10.2494
2023-04-18T08:32:49.817Z,10.2971
2023-04-18T08:33:50.699Z,10.3454
2023-04-18T08:34:51.746Z,10.5055
2023-04-18T08:35:52.721Z,10.5578
2023-04-18T08:36:53.785Z,10.5165
2023-04-18T08:37:54.789Z,10.2002
2023-04-18T08:38:55.873Z,10.1017
2023-04-18T08:39:56.869Z,9.9806
2023-04-18T08:40:57.879Z,9.8094
2023-04-18T08:41:58.948Z,9.7675
2023-04-18T08:43:00.008Z,9.7320
2023-04-18T08:44:01.182Z,9.7988
2023-04-18T08:45:02.182Z,9.7849
2023-04-18T08:46:03.375Z,9.8074
2023-04-18T08:47:04.253Z,9.9066
2023-04-18T08:48:05.279Z,9.9357
2023-04-18T08:49:06.425Z,10.0579
2023-04-18T08:50:07.321Z,10.1399
2023-04-18T08:51:08.356Z,10.1242
2023-04-18T08:52:09.405Z,10.3688
2023-04-18T08:53:10.442Z,10.6049
2023-04-18T08:54:11.586Z,10.7511
2023-04-18T08:55:12.529Z,10.8288
2023-04-18T08:56:13.577Z,10.8620
2023-04-18T08:57:14.590Z,10.8067
2023-04-18T08:58:15.679Z,10.9365
2023-04-18T08:59:16.694Z,10.9074
2023-04-18T09:00:17.735Z,10.5971
2023-04-18T09:01:18.769Z,10.3750
2023-04-18T09:02:19.817Z,10.3351
2023-04-18T09:03:20.805Z,10.2495
2023-04-18T09:04:22.076Z,10.3554
2023-04-18T09:05:22.883Z,10.4078
2023-04-18T09:06:24.379Z,10.3221
2023-04-18T09:07:24.978Z,10.2800
2023-04-18T09:08:26.037Z,10.4351
2023-04-18T09:09:27.089Z,10.7120
2023-04-18T09:10:28.142Z,10.7747
2023-04-18T09:11:29.525Z,10.6563
2023-04-18T09:12:30.212Z,10.7120
2023-04-18T09:13:31.243Z,10.7573
2023-04-18T09:14:32.301Z,10.6692
2023-04-18T09:15:33.315Z,10.6884
2023-04-18T09:16:34.478Z,10.7841
2023-04-18T09:17:35.417Z,10.9663
2023-04-18T09:18:36.412Z,11.0036
2023-04-18T09:19:37.546Z,10.9301
2023-04-18T09:20:38.615Z,10.8506
2023-04-18T09:21:39.569Z,10.9634
2023-04-18T09:22:40.600Z,11.0066
2023-04-18T09:23:41.610Z,10.8870
2023-04-18T09:24:42.615Z,10.7440
2023-04-18T09:25:44.958Z,10.7054
2023-04-18T09:26:44.654Z,10.9163
2023-04-18T09:27:45.705Z,10.9572
2023-04-18T09:28:46.738Z,10.9363
2023-04-18T09:29:47.815Z,10.9550
2023-04-18T09:30:48.828Z,10.8935
2023-04-18T09:31:49.873Z,11.1916
2023-04-18T09:32:50.967Z,11.3623
2023-04-18T09:33:51.952Z,11.5111
2023-04-18T09:34:53.152Z,11.6933
2023-04-18T09:35:54.010Z,11.5063
2023-04-18T09:36:55.104Z,11.1923
2023-04-18T09:37:56.084Z,11.0343
2023-04-18T09:38:57.458Z,10.8912
2023-04-18T09:39:58.220Z,10.9968
2023-04-18T09:40:59.183Z,10.8496
2023-04-18T09:42:00.250Z,10.7093
2023-04-18T09:43:01.277Z,10.7827
2023-04-18T09:44:02.371Z,11.0852
2023-04-18T09:45:03.452Z,11.2404
2023-04-18T09:46:04.515Z,11.2376
2023-04-18T09:47:05.459Z,11.2806
2023-04-18T09:48:06.537Z,11.1340
2023-04-18T09:49:09.676Z,11.0749
2023-04-18T09:50:08.662Z,10.9024
2023-04-18T09:51:09.689Z,10.7262
2023-04-18T09:52:10.689Z,10.8105
2023-04-18T09:53:11.701Z,10.8107
2023-04-18T09:54:12.931Z,10.9290
2023-04-18T09:55:13.902Z,10.8799
2023-04-18T09:56:14.846Z,10.7904
2023-04-18T09:57:15.874Z,10.6620
2023-04-18T09:58:16.944Z,10.6288
2023-04-18T09:59:20.507Z,10.7175
2023-04-18T10:00:18.993Z,10.8427
2023-04-18T10:01:20.135Z,10.8707
2023-04-18T10:02:21.192Z,10.8881
2023-04-18T10:03:22.256Z,10.9568
2023-04-18T10:04:23.213Z,11.1054
2023-04-18T10:05:24.250Z,11.4395
2023-04-18T10:06:25.238Z,11.7121
2023-04-18T10:07:26.325Z,11.6849
2023-04-18T10:08:27.356Z,11.3708
2023-04-18T10:09:28.455Z,11.2282
2023-04-18T10:10:29.530Z,11.3733
2023-04-18T10:11:30.546Z,11.3048
2023-04-18T10:12:31.508Z,11.1123
2023-04-18T10:13:32.568Z,11.1314
2023-04-18T10:14:33.602Z,11.1835
2023-04-18T10:15:34.638Z,11.3791
2023-04-18T10:16:36.407Z,11.5990
2023-04-18T10:17:36.762Z,11.6570
2023-04-18T10:18:38.087Z,11.6134
2023-04-18T10:19:38.791Z,11.5193
2023-04-18T10:20:40.083Z,11.2637
2023-04-18T10:21:41.001Z,11.3271
2023-04-18T10:22:41.935Z,11.5652
2023-04-18T10:23:42.949Z,11.4841
2023-04-18T10:24:44.008Z,11.1829
2023-04-18T10:25:45.008Z,11.1845
2023-04-18T10:26:46.156Z,11.3004
2023-04-18T10:27:47.177Z,11.2214
2023-04-18T10:28:48.180Z,11.1847
2023-04-18T10:29:49.183Z,11.3065
2023-04-18T10:30:50.242Z,11.4118
2023-04-18T10:31:51.383Z,11.2496
2023-04-18T10:32:52.336Z,11.0751
2023-04-18T10:34:04.014Z,11.1096
2023-04-18T10:34:54.433Z,11.0908
2023-04-18T10:35:55.401Z,11.1634
2023-04-18T10:36:56.475Z,11.1152
2023-04-18T10:37:57.481Z,11.1094
2023-04-18T10:38:58.520Z,10.9645
2023-04-18T10:39:59.532Z,11.1808
2023-04-18T10:41:00.594Z,11.2382
2023-04-18T10:42:01.657Z,11.3078
2023-04-18T10:43:02.779Z,11.6046
2023-04-18T10:44:03.694Z,11.8111
2023-04-18T10:45:04.729Z,11.6650
2023-04-18T10:46:07.439Z,11.6776
2023-04-18T10:47:06.921Z,11.5096
2023-04-18T10:48:07.873Z,11.5773
2023-04-18T10:49:08.886Z,11.7511
2023-04-18T10:50:09.926Z,11.8037
2023-04-18T10:51:11.098Z,11.5667
2023-04-18T10:52:13.364Z,11.5022
2023-04-18T10:53:13.072Z,11.4035
2023-04-18T10:54:14.212Z,11.4553
2023-04-18T10:55:15.168Z,11.3712
2023-04-18T10:56:16.190Z,11.4910
2023-04-18T10:57:17.302Z,11.6183
2023-04-18T10:58:18.168Z,11.6033
2023-04-18T10:59:19.234Z,11.6860
2023-04-18T11:00:20.416Z,11.9176
2023-04-18T11:01:21.331Z,12.1501
2023-04-18T11:02:22.396Z,11.9968
2023-04-18T11:03:23.506Z,12.0021
2023-04-18T11:04:24.510Z,12.1963
2023-04-18T11:05:25.463Z,12.2203
2023-04-18T11:06:26.479Z,12.3255
2023-04-18T11:07:29.921Z,12.4699
2023-04-18T11:08:28.572Z,12.6049
2023-04-18T11:09:29.614Z,12.2953
2023-04-18T11:10:30.667Z,12.0943
2023-04-18T11:11:31.763Z,11.8764
2023-04-18T11:12:32.826Z,11.7905
2023-04-18T11:13:33.850Z,11.6267
2023-04-18T11:14:35.016Z,11.8276
2023-04-18T11:15:36.105Z,11.7962
2023-04-18T11:16:36.979Z,11.7522
2023-04-18T11:17:38.034Z,11.8749
2023-04-18T11:18:39.042Z,12.0708
2023-04-18T11:19:40.092Z,12.1700
2023-04-18T11:20:41.120Z,12.4586
2023-04-18T11:21:42.188Z,12.5044
2023-04-18T11:22:43.206Z,12.2376
2023-04-18T11:23:44.290Z,12.2789
2023-04-18T11:24:45.264Z,12.3453
2023-04-18T11:25:46.308Z,12.3509
2023-04-18T11:26:47.299Z,12.3382
2023-04-18T11:27:48.376Z,12.2253
2023-04-18T11:28:49.401Z,12.0821
2023-04-18T11:29:50.409Z,12.0114
2023-04-18T11:30:51.438Z,11.9024
2023-04-18T11:31:52.831Z,11.7460
2023-04-18T11:32:53.565Z,11.8358
2023-04-18T11:33:54.583Z,12.0036
2023-04-18T11:34:55.570Z,12.1875
2023-04-18T11:35:56.635Z,12.2995
2023-04-18T11:36:57.647Z,12.2391
2023-04-18T11:37:58.664Z,12.2708
2023-04-18T11:38:59.793Z,12.0737
2023-04-18T11:40:00.773Z,11.9241
2023-04-18T11:41:01.811Z,11.9505
2023-04-18T11:42:02.842Z,11.9999
2023-04-18T11:43:03.875Z,12.1148
2023-04-18T11:44:04.989Z,12.2764
2023-04-18T11:45:05.941Z,12.3504
2023-04-18T11:46:07.010Z,12.2938
2023-04-18T11:47:08.022Z,12.3796
2023-04-18T11:48:09.191Z,12.2969
2023-04-18T11:49:10.132Z,12.2184
2023-04-18T11:50:11.121Z,12.3096
2023-04-18T11:51:12.326Z,12.3846
2023-04-18T11:52:13.494Z,12.6316
2023-04-18T11:53:14.232Z,12.9637
2023-04-18T11:54:15.441Z,13.1101
2023-04-18T11:55:16.318Z,13.1610
2023-04-18T11:56:17.373Z,13.3838
2023-04-18T11:57:18.387Z,13.3368
2023-04-18T11:58:19.423Z,13.2370
2023-04-18T11:59:20.500Z,12.9922
2023-04-18T12:00:21.527Z,12.7609
2023-04-18T12:01:22.906Z,12.6778
2023-04-18T12:02:23.665Z,12.6558
2023-04-18T12:03:25.134Z,12.6384
2023-04-18T12:04:25.754Z,12.6667
2023-04-18T12:05:26.804Z,12.8623
2023-04-18T12:06:27.763Z,13.0141
2023-04-18T12:07:28.879Z,13.2146
2023-04-18T12:08:29.771Z,12.9699
2023-04-18T12:09:30.858Z,13.0460
2023-04-18T12:10:31.883Z,13.0941
2023-04-18T12:11:32.878Z,12.9717
2023-04-18T12:12:33.905Z,12.8644
2023-04-18T12:13:34.961Z,12.9700
2023-04-18T12:14:36.060Z,12.9281
2023-04-18T12:15:37.019Z,13.0184
2023-04-18T12:16:38.064Z,13.0848
2023-04-18T12:17:39.274Z,13.0564
2023-04-18T12:18:40.114Z,13.0734
2023-04-18T12:19:41.232Z,13.2457
2023-04-18T12:20:42.212Z,13.3918
2023-04-18T12:21:43.217Z,13.6301
2023-04-18T12:22:44.290Z,13.5300
2023-04-18T12:23:45.310Z,13.5687
2023-04-18T12:24:46.310Z,13.5103
2023-04-18T12:25:47.349Z,13.5713
2023-04-18T12:26:48.385Z,13.6510
2023-04-18T12:27:49.440Z,13.5505
2023-04-18T12:28:50.507Z,13.5225
2023-04-18T12:29:51.540Z,13.6734
2023-04-18T12:30:52.558Z,13.6078
2023-04-18T12:31:53.655Z,13.3320